Manville, Wyoming
Current Conditions -  °F | °C
As of 12:55 AM on Saturday 25 Oct 2014 (Local Time) from KGUR Reporting Station
Clear Clear  
Wind Chill: 59°   Ceiling: Unl
Heat Index: 59°   Visibility: 10mi
Dew Point: 32°   Wind: 13mph
Humidity: 35%   Direction: 100°E
Pressure: 30.14"   Gusts: 17mph
Location:  42.78°N, 104.62°W
Report Text: KGUR 250655Z AUTO 10011G15KT 10SM CLR 15/00 A3014 RMK AO2 T01521001
Loading
Personal Weather Stations






























Interactive Weather Map
Tropical Storm Tracking
New forecast layout! Learn more

10-Day Weather Forecast

Advertisements
Track Severe Weather on mobile